< < Back
Terminal Aerodrome Forecast


Current Version              Previous Versions:   1  2  3  4  5  6  7  8  9  

Terminal Aerodrome Forecast

269
FTUS42 KILM 271100
TAFFLO
TAF
KFLO 271120Z 2712/2812 32011G18KT P6SM SCT060
     FM271600 34009KT P6SM SKC=

Latest METAR

893
SAUS70 KWBC 280100 RRO
MTRFLO
METAR KFLO 280053Z 00000KT 10SM CLR 03/M06 A2993 RMK AO2 SLP135
T00331056


USA.gov is the U.S. government's official web portal to all federal, state and local government web resources and services.